createdAt,value
2019-02-16T00:02:08.518Z,1.40
2019-02-16T00:04:38.721Z,1.40
2019-02-16T00:07:08.936Z,1.40
2019-02-16T00:09:39.208Z,1.40
2019-02-16T00:12:09.424Z,1.40
2019-02-16T00:14:39.752Z,1.40
2019-02-16T00:17:09.932Z,1.30
2019-02-16T00:19:40.101Z,1.20
2019-02-16T00:22:10.294Z,1.20
2019-02-16T00:24:40.551Z,1.20
2019-02-16T00:27:10.778Z,1.20
2019-02-16T00:29:40.956Z,1.20
2019-02-16T00:32:11.234Z,1.20
2019-02-16T00:34:41.578Z,1.20
2019-02-16T00:37:11.782Z,1.20
2019-02-16T00:39:42.118Z,1.20
2019-02-16T00:42:12.258Z,1.20
2019-02-16T00:44:42.612Z,1.20
2019-02-16T00:47:12.920Z,1.20
2019-02-16T00:49:43.172Z,1.20
2019-02-16T00:52:13.482Z,1.10
2019-02-16T00:54:43.649Z,1.10
2019-02-16T00:57:13.980Z,1.10
2019-02-16T00:59:44.101Z,1.10
2019-02-16T01:02:14.365Z,1.00
2019-02-16T01:04:44.574Z,1.00
2019-02-16T01:07:14.853Z,1.00
2019-02-16T01:09:45.145Z,1.00
2019-02-16T01:12:15.362Z,1.00
2019-02-16T01:14:45.497Z,0.90
2019-02-16T01:17:15.740Z,0.90
2019-02-16T01:19:46.027Z,0.90
2019-02-16T01:22:16.194Z,0.80
2019-02-16T01:24:46.481Z,0.80
2019-02-16T01:27:16.725Z,0.80
2019-02-16T01:29:47.002Z,0.70
2019-02-16T01:32:17.194Z,0.70
2019-02-16T01:34:47.376Z,0.70
2019-02-16T01:37:17.531Z,0.70
2019-02-16T01:39:48.088Z,0.70
2019-02-16T01:42:18.342Z,0.70
2019-02-16T01:44:48.637Z,0.70
2019-02-16T01:47:18.919Z,0.70
2019-02-16T01:49:49.019Z,0.70
2019-02-16T01:52:19.321Z,0.80
2019-02-16T01:54:49.602Z,0.80
2019-02-16T01:57:19.819Z,0.80
2019-02-16T01:59:50.135Z,0.70
2019-02-16T02:02:20.413Z,0.70
2019-02-16T02:04:50.610Z,0.60
2019-02-16T02:07:20.893Z,0.60
2019-02-16T02:09:51.105Z,0.60
2019-02-16T02:12:21.525Z,0.60
2019-02-16T02:14:51.775Z,0.60
2019-02-16T02:17:21.965Z,0.60
2019-02-16T02:19:52.214Z,0.60
2019-02-16T02:22:22.401Z,0.60
2019-02-16T02:24:52.572Z,0.50
2019-02-16T02:27:23.011Z,0.50
2019-02-16T02:29:53.334Z,0.60
2019-02-16T02:32:23.641Z,0.50
2019-02-16T02:34:53.898Z,0.50
2019-02-16T02:37:24.075Z,0.50
2019-02-16T02:39:54.290Z,0.50
2019-02-16T02:42:24.527Z,0.40
2019-02-16T02:44:54.860Z,0.40
2019-02-16T02:47:25.110Z,0.40
2019-02-16T02:49:55.417Z,0.40
2019-02-16T02:52:25.673Z,0.30
2019-02-16T02:54:55.889Z,0.20
2019-02-16T02:57:26.058Z,0.20
2019-02-16T02:59:56.264Z,0.20
2019-02-16T03:02:26.463Z,0.10
2019-02-16T03:04:56.801Z,0.20
2019-02-16T03:07:27.088Z,0.20
2019-02-16T03:09:57.411Z,0.20
2019-02-16T03:12:27.664Z,0.20
2019-02-16T03:14:57.956Z,0.10
2019-02-16T03:17:28.167Z,0.10
2019-02-16T03:19:58.448Z,0.10
2019-02-16T03:23:05.390Z,0.10
2019-02-16T03:25:35.691Z,0.00
2019-02-16T03:28:45.502Z,0.10
2019-02-16T03:32:03.334Z,0.00
2019-02-16T03:34:38.594Z,0.00
2019-02-16T03:38:01.397Z,-0.10
2019-02-16T03:40:31.694Z,-0.10
2019-02-16T03:43:01.965Z,-0.20
2019-02-16T03:45:32.229Z,-0.20
2019-02-16T03:48:02.553Z,-0.20
2019-02-16T03:50:32.869Z,-0.20
2019-02-16T03:53:03.198Z,-0.30
2019-02-16T03:55:33.399Z,-0.30
2019-02-16T03:58:22.828Z,-0.30
2019-02-16T04:00:52.978Z,-0.30
2019-02-16T04:03:23.258Z,-0.40
2019-02-16T04:05:53.522Z,-0.40
2019-02-16T04:08:23.758Z,-0.50
2019-02-16T04:10:54.054Z,-0.50
2019-02-16T04:13:24.218Z,-0.50
2019-02-16T04:15:54.497Z,-0.50
2019-02-16T04:18:24.748Z,-0.60
2019-02-16T04:20:55.089Z,-0.70
2019-02-16T04:23:25.354Z,-0.70
2019-02-16T04:25:55.674Z,-0.70
2019-02-16T04:28:25.816Z,-0.60
2019-02-16T04:30:56.038Z,-0.60
2019-02-16T04:33:26.330Z,-0.70
2019-02-16T04:35:56.526Z,-0.70
2019-02-16T04:38:26.856Z,-0.80
2019-02-16T04:40:56.979Z,-0.70
2019-02-16T04:43:27.229Z,-0.80
2019-02-16T04:45:57.398Z,-0.80
2019-02-16T04:48:27.659Z,-0.70
2019-02-16T04:50:57.948Z,-0.60
2019-02-16T04:53:28.176Z,-0.60
2019-02-16T04:55:58.293Z,-0.60
2019-02-16T04:58:28.560Z,-0.50
2019-02-16T05:00:58.745Z,-0.40
2019-02-16T05:03:28.993Z,-0.40
2019-02-16T05:05:59.884Z,-0.30
2019-02-16T05:08:30.349Z,-0.30
2019-02-16T05:11:00.562Z,-0.30
2019-02-16T05:13:30.781Z,-0.20
2019-02-16T05:16:00.987Z,-0.20
2019-02-16T05:18:31.161Z,-0.20
2019-02-16T05:21:01.311Z,-0.20
2019-02-16T05:23:31.614Z,-0.10
2019-02-16T05:26:01.902Z,-0.10
2019-02-16T05:28:32.202Z,-0.10
2019-02-16T05:31:02.418Z,-0.10
2019-02-16T05:33:32.612Z,-0.10
2019-02-16T05:36:02.875Z,-0.10
2019-02-16T05:38:33.115Z,-0.10
2019-02-16T05:41:03.407Z,-0.10
2019-02-16T05:43:33.708Z,-0.10
2019-02-16T05:46:03.964Z,-0.10
2019-02-16T05:48:34.161Z,-0.10
2019-02-16T05:51:04.455Z,-0.10
2019-02-16T05:53:34.770Z,-0.10
2019-02-16T05:56:04.961Z,-0.10
2019-02-16T05:58:35.131Z,-0.10
2019-02-16T06:01:05.291Z,-0.10
2019-02-16T06:03:35.569Z,-0.10
2019-02-16T06:06:05.811Z,-0.20
2019-02-16T06:08:36.156Z,-0.20
2019-02-16T06:11:06.488Z,-0.20
2019-02-16T06:13:36.860Z,-0.20
2019-02-16T06:16:07.114Z,-0.20
2019-02-16T06:18:37.378Z,-0.30
2019-02-16T06:21:07.658Z,-0.20
2019-02-16T06:23:37.809Z,-0.20
2019-02-16T06:26:08.113Z,-0.20
2019-02-16T06:28:38.252Z,-0.20
2019-02-16T06:31:08.487Z,-0.10
2019-02-16T06:33:38.671Z,-0.10
2019-02-16T06:36:17.929Z,-0.20
2019-02-16T06:38:48.187Z,-0.20
2019-02-16T06:41:18.418Z,-0.20
2019-02-16T06:43:48.623Z,-0.20
2019-02-16T06:46:18.891Z,-0.20
2019-02-16T06:48:49.166Z,-0.30
2019-02-16T06:51:19.385Z,-0.30
2019-02-16T06:53:49.555Z,-0.30
2019-02-16T06:56:33.043Z,-0.40
2019-02-16T06:59:03.203Z,-0.40
2019-02-16T07:01:33.425Z,-0.40
2019-02-16T07:04:03.749Z,-0.40
2019-02-16T07:06:33.931Z,-0.40
2019-02-16T07:09:05.576Z,-0.30
2019-02-16T07:11:35.733Z,-0.30
2019-02-16T07:14:05.997Z,-0.30
2019-02-16T07:16:58.028Z,-0.20
2019-02-16T07:19:31.517Z,-0.10
2019-02-16T07:22:01.745Z,0.00
2019-02-16T07:24:32.085Z,0.00
2019-02-16T07:27:02.331Z,0.10
2019-02-16T07:29:32.628Z,0.10
2019-02-16T07:32:02.952Z,0.10
2019-02-16T07:34:33.179Z,0.10
2019-02-16T07:37:03.448Z,0.10
2019-02-16T07:39:33.646Z,0.20
2019-02-16T07:42:03.916Z,0.20
2019-02-16T07:44:47.970Z,0.20
2019-02-16T07:47:43.421Z,0.30
2019-02-16T07:50:22.083Z,0.40
2019-02-16T07:53:14.106Z,0.40
2019-02-16T07:56:18.581Z,0.50
2019-02-16T07:59:10.621Z,0.60
2019-02-16T08:01:59.845Z,0.70
2019-02-16T08:04:55.969Z,0.80
2019-02-16T08:07:36.854Z,0.90
2019-02-16T08:10:28.955Z,1.00
2019-02-16T08:13:21.202Z,1.10
2019-02-16T08:15:58.284Z,1.20
2019-02-16T08:18:47.495Z,1.30
2019-02-16T08:21:52.000Z,1.40
2019-02-16T08:24:39.743Z,1.50
2019-02-16T08:27:22.224Z,1.60
2019-02-16T08:30:05.205Z,1.70
2019-02-16T08:33:12.876Z,1.90
2019-02-16T08:36:00.944Z,2.00
2019-02-16T08:38:53.017Z,2.10
2019-02-16T08:41:40.964Z,2.20
2019-02-16T08:44:19.489Z,2.40
2019-02-16T08:47:09.407Z,2.50
2019-02-16T08:49:52.633Z,2.60
2019-02-16T08:52:41.832Z,2.60
2019-02-16T08:55:20.118Z,2.60
2019-02-16T08:58:15.298Z,2.70
2019-02-16T09:00:52.731Z,2.80
2019-02-16T09:03:44.521Z,2.90
2019-02-16T09:06:36.370Z,3.00
2019-02-16T09:09:24.692Z,3.10
2019-02-16T09:12:02.934Z,3.20
2019-02-16T09:15:01.679Z,3.40
2019-02-16T09:17:51.761Z,3.50
2019-02-16T09:20:46.153Z,3.70
2019-02-16T09:23:38.330Z,3.90
2019-02-16T09:26:15.478Z,4.00
2019-02-16T09:29:04.738Z,4.20
2019-02-16T09:31:52.844Z,4.40
2019-02-16T09:34:42.085Z,4.70
2019-02-16T09:37:19.467Z,4.80
2019-02-16T09:40:17.794Z,4.90
2019-02-16T09:42:57.289Z,5.10
2019-02-16T09:45:34.186Z,5.30
2019-02-16T09:48:26.152Z,5.40
2019-02-16T09:51:18.565Z,5.40
2019-02-16T09:54:08.587Z,5.60
2019-02-16T09:57:09.670Z,5.80
2019-02-16T09:59:57.950Z,6.00
2019-02-16T10:02:56.077Z,6.10
2019-02-16T10:05:51.336Z,6.20
2019-02-16T10:08:29.229Z,6.30
2019-02-16T10:11:21.609Z,6.40
2019-02-16T10:14:19.190Z,6.60
2019-02-16T10:17:11.258Z,6.80
2019-02-16T10:20:03.246Z,7.00
2019-02-16T10:22:44.235Z,7.20
2019-02-16T10:25:26.839Z,7.30
2019-02-16T10:28:22.381Z,7.40
2019-02-16T10:31:10.679Z,7.50
2019-02-16T10:34:08.922Z,7.70
2019-02-16T10:36:56.811Z,8.00
2019-02-16T10:39:33.715Z,8.20
2019-02-16T10:42:22.886Z,8.50
2019-02-16T10:45:05.793Z,8.70
2019-02-16T10:48:01.105Z,9.00
2019-02-16T10:51:02.659Z,9.20
2019-02-16T10:53:57.958Z,9.50
2019-02-16T10:56:52.336Z,9.80
2019-02-16T10:59:31.143Z,10.10
2019-02-16T11:02:10.479Z,10.40
2019-02-16T11:05:03.709Z,10.60
2019-02-16T11:07:52.025Z,10.90
2019-02-16T11:10:27.515Z,11.20
2019-02-16T11:13:06.979Z,11.20
2019-02-16T11:16:02.411Z,11.40
2019-02-16T11:18:39.183Z,11.70
2019-02-16T11:21:27.354Z,11.90
2019-02-16T11:24:16.624Z,12.30
2019-02-16T11:27:05.814Z,12.70
2019-02-16T11:30:01.002Z,13.10
2019-02-16T11:32:50.257Z,13.40
2019-02-16T11:35:42.586Z,13.70
2019-02-16T11:38:31.213Z,14.10
2019-02-16T11:41:26.302Z,14.50
2019-02-16T11:44:18.582Z,14.90
2019-02-16T11:47:05.223Z,15.20
2019-02-16T11:50:03.729Z,15.40
2019-02-16T11:52:40.519Z,15.50
2019-02-16T11:55:20.281Z,15.90
2019-02-16T11:58:09.577Z,16.30
2019-02-16T12:00:58.809Z,16.70
2019-02-16T12:03:48.081Z,17.00
2019-02-16T12:06:26.217Z,17.20
2019-02-16T12:09:11.598Z,17.00
2019-02-16T12:11:48.262Z,17.40
2019-02-16T12:14:29.848Z,17.90
2019-02-16T12:17:08.269Z,18.20
2019-02-16T12:19:56.461Z,18.30
2019-02-16T12:22:42.509Z,18.70
2019-02-16T12:25:30.585Z,18.80
2019-02-16T12:28:06.934Z,19.30
2019-02-16T12:30:59.373Z,19.70
2019-02-16T12:33:44.650Z,20.20
2019-02-16T12:36:42.983Z,20.50
2019-02-16T12:39:38.067Z,20.50
2019-02-16T12:42:27.331Z,21.10
2019-02-16T12:45:15.255Z,20.90
2019-02-16T12:48:02.706Z,21.40
2019-02-16T12:50:55.037Z,21.70
2019-02-16T12:53:59.637Z,21.30
2019-02-16T12:56:48.868Z,21.30
2019-02-16T12:59:26.900Z,21.70
2019-02-16T13:02:19.300Z,21.90
2019-02-16T13:05:23.531Z,22.40
2019-02-16T13:08:15.583Z,23.10
2019-02-16T13:11:09.899Z,24.80
2019-02-16T13:13:45.252Z,26.00
2019-02-16T13:16:33.138Z,27.00
2019-02-16T13:19:40.600Z,27.20
2019-02-16T13:22:16.514Z,28.20
2019-02-16T13:25:01.375Z,28.50
2019-02-16T13:28:02.786Z,29.70
2019-02-16T13:30:49.583Z,30.00
2019-02-16T13:33:35.915Z,30.30
2019-02-16T13:36:24.415Z,31.00
2019-02-16T13:39:07.292Z,31.60
2019-02-16T13:41:44.947Z,31.60
2019-02-16T13:44:49.432Z,29.80
2019-02-16T13:47:26.695Z,29.60
2019-02-16T13:50:08.772Z,29.80
2019-02-16T13:52:55.304Z,30.30
2019-02-16T13:55:43.440Z,31.00
2019-02-16T13:58:32.737Z,31.40
2019-02-16T14:01:37.355Z,32.20
2019-02-16T14:04:24.394Z,32.30
2019-02-16T14:07:02.830Z,33.10
2019-02-16T14:10:01.141Z,33.90
2019-02-16T14:12:53.276Z,33.70
2019-02-16T14:15:31.653Z,33.50
2019-02-16T14:18:01.974Z,32.50
2019-02-16T14:20:32.283Z,31.50
2019-02-16T14:23:02.541Z,30.50
2019-02-16T14:25:43.795Z,29.60
2019-02-16T14:28:11.695Z,28.10
2019-02-16T14:30:42.074Z,26.80
2019-02-16T14:33:12.262Z,26.10
2019-02-16T14:35:42.565Z,25.60
2019-02-16T14:38:19.597Z,24.90
2019-02-16T14:40:50.060Z,24.00
2019-02-16T14:43:20.212Z,23.20
2019-02-16T14:45:50.551Z,23.00
2019-02-16T14:48:20.729Z,22.80
2019-02-16T14:50:50.922Z,22.50
2019-02-16T14:53:21.138Z,21.90
2019-02-16T14:55:54.165Z,21.30
2019-02-16T14:58:23.262Z,20.70
2019-02-16T15:00:53.573Z,20.40
2019-02-16T15:03:23.797Z,19.90
2019-02-16T15:05:53.979Z,19.60
2019-02-16T15:08:24.297Z,19.20
2019-02-16T15:10:54.618Z,19.00
2019-02-16T15:13:24.975Z,18.70
2019-02-16T15:15:55.201Z,18.60
2019-02-16T15:18:25.440Z,18.40
2019-02-16T15:20:55.690Z,18.10
2019-02-16T15:23:25.980Z,18.00
2019-02-16T15:26:01.029Z,17.90
2019-02-16T15:28:28.129Z,17.60
2019-02-16T15:30:58.305Z,17.10
2019-02-16T15:33:28.529Z,17.10
2019-02-16T15:35:58.837Z,17.10
2019-02-16T15:38:29.087Z,17.00
2019-02-16T15:40:59.337Z,17.00
2019-02-16T15:43:29.465Z,16.80
2019-02-16T15:45:59.771Z,16.70
2019-02-16T15:48:29.965Z,16.60
2019-02-16T15:51:00.227Z,16.50
2019-02-16T15:53:30.516Z,16.40
2019-02-16T15:56:09.843Z,16.40
2019-02-16T15:58:32.728Z,16.20
2019-02-16T16:01:03.186Z,16.10
2019-02-16T16:03:33.555Z,16.00
2019-02-16T16:06:03.756Z,15.80
2019-02-16T16:08:50.165Z,15.70
2019-02-16T16:11:41.203Z,15.50
2019-02-16T16:14:30.507Z,15.30
2019-02-16T16:17:19.805Z,15.10
2019-02-16T16:20:08.996Z,14.90
2019-02-16T16:22:57.234Z,14.70
2019-02-16T16:25:39.447Z,14.50
2019-02-16T16:28:46.775Z,14.30
2019-02-16T16:31:34.663Z,14.10
2019-02-16T16:34:21.687Z,14.00
2019-02-16T16:37:16.757Z,13.80
2019-02-16T16:40:04.665Z,13.70
2019-02-16T16:43:00.012Z,13.60
2019-02-16T16:45:46.421Z,13.40
2019-02-16T16:48:25.814Z,13.20
2019-02-16T16:51:13.605Z,13.00
2019-02-16T16:54:15.112Z,12.70
2019-02-16T16:57:16.330Z,12.50
2019-02-16T16:59:54.739Z,12.30
2019-02-16T17:02:35.289Z,12.10
2019-02-16T17:05:23.608Z,11.90
2019-02-16T17:08:12.889Z,11.90
2019-02-16T17:11:00.391Z,11.70
2019-02-16T17:13:36.644Z,11.50
2019-02-16T17:16:33.607Z,11.40
2019-02-16T17:19:24.364Z,11.30
2019-02-16T17:22:31.920Z,11.00
2019-02-16T17:25:25.764Z,10.90
2019-02-16T17:28:20.988Z,10.70
2019-02-16T17:31:07.927Z,10.50
2019-02-16T17:33:54.703Z,10.30
2019-02-16T17:36:42.683Z,10.20
2019-02-16T17:39:40.788Z,10.00
2019-02-16T17:42:32.857Z,9.90
2019-02-16T17:45:25.240Z,9.80
2019-02-16T17:48:17.314Z,9.70
2019-02-16T17:51:03.324Z,9.60
2019-02-16T17:54:08.720Z,9.40
2019-02-16T17:57:01.016Z,9.20
2019-02-16T17:59:40.089Z,9.10
2019-02-16T18:02:28.068Z,9.10
2019-02-16T18:05:07.082Z,9.00
2019-02-16T18:07:55.267Z,8.90
2019-02-16T18:10:55.010Z,8.90
2019-02-16T18:13:44.737Z,8.80
2019-02-16T18:16:25.240Z,8.80
2019-02-16T18:19:07.263Z,8.70
2019-02-16T18:21:48.345Z,8.60
2019-02-16T18:24:34.718Z,8.50
2019-02-16T18:27:39.396Z,8.50
2019-02-16T18:30:40.654Z,8.40
2019-02-16T18:33:32.741Z,8.30
2019-02-16T18:36:37.394Z,8.30
2019-02-16T18:39:28.198Z,8.20
2019-02-16T18:42:07.075Z,8.10
2019-02-16T18:44:54.621Z,8.00
2019-02-16T18:47:59.030Z,7.90
2019-02-16T18:50:51.131Z,7.90
2019-02-16T18:53:39.433Z,7.80
2019-02-16T18:56:19.496Z,7.70
2019-02-16T18:59:02.859Z,7.60
2019-02-16T19:01:44.803Z,7.60
2019-02-16T19:04:31.547Z,7.50
2019-02-16T19:07:20.822Z,7.40
2019-02-16T19:10:08.876Z,7.40
2019-02-16T19:12:57.548Z,7.30
2019-02-16T19:15:41.122Z,7.30
2019-02-16T19:18:21.811Z,7.20
2019-02-16T19:20:58.721Z,7.20
2019-02-16T19:24:03.174Z,7.10
2019-02-16T19:26:58.287Z,7.00
2019-02-16T19:30:05.672Z,7.00
2019-02-16T19:33:00.468Z,6.90
2019-02-16T19:35:55.406Z,6.80
2019-02-16T19:38:44.760Z,6.70
2019-02-16T19:41:24.889Z,6.70
2019-02-16T19:44:17.457Z,6.70
2019-02-16T19:47:15.949Z,6.60
2019-02-16T19:50:14.150Z,6.50
2019-02-16T19:53:15.812Z,6.50
2019-02-16T19:56:10.870Z,6.40
2019-02-16T19:58:53.390Z,6.40
2019-02-16T20:01:33.969Z,6.40
2019-02-16T20:04:26.706Z,6.30
2019-02-16T20:07:15.931Z,6.30
2019-02-16T20:10:01.210Z,6.20
2019-02-16T20:12:49.534Z,6.20
2019-02-16T20:15:44.860Z,6.10
2019-02-16T20:18:26.064Z,6.10
2019-02-16T20:21:33.518Z,6.00
2019-02-16T20:24:31.618Z,5.90
2019-02-16T20:27:20.867Z,5.80
2019-02-16T20:30:02.437Z,5.80
2019-02-16T20:32:51.693Z,5.80
2019-02-16T20:35:43.957Z,5.80
2019-02-16T20:38:48.271Z,5.80
2019-02-16T20:41:37.737Z,5.80
2019-02-16T20:44:29.777Z,5.70
2019-02-16T20:47:22.048Z,5.60
2019-02-16T20:50:17.026Z,5.60
2019-02-16T20:52:55.441Z,5.60
2019-02-16T20:55:42.736Z,5.50
2019-02-16T20:58:38.868Z,5.50
2019-02-16T21:01:26.933Z,5.30
2019-02-16T21:04:22.023Z,5.30
2019-02-16T21:07:14.319Z,5.20
2019-02-16T21:09:54.320Z,5.10
2019-02-16T21:12:49.866Z,5.00
2019-02-16T21:15:30.938Z,5.00
2019-02-16T21:18:25.940Z,4.90
2019-02-16T21:21:13.065Z,4.90
2019-02-16T21:24:05.067Z,4.80
2019-02-16T21:27:11.540Z,4.80
2019-02-16T21:30:12.885Z,4.80
2019-02-16T21:32:59.148Z,4.70
2019-02-16T21:35:46.954Z,4.70
2019-02-16T21:38:32.998Z,4.60
2019-02-16T21:41:25.270Z,4.50
2019-02-16T21:44:22.098Z,4.40
2019-02-16T21:47:11.345Z,4.30
2019-02-16T21:49:59.676Z,4.30
2019-02-16T21:52:47.535Z,4.30
2019-02-16T21:55:36.746Z,4.40
2019-02-16T21:58:23.039Z,4.30
2019-02-16T22:01:11.414Z,4.30
2019-02-16T22:04:06.746Z,4.30
2019-02-16T22:06:55.486Z,4.30
2019-02-16T22:09:53.972Z,4.30
2019-02-16T22:12:49.108Z,4.20
2019-02-16T22:15:19.483Z,4.20
2019-02-16T22:17:49.726Z,4.10
2019-02-16T22:20:20.004Z,4.00
2019-02-16T22:22:50.178Z,4.00
2019-02-16T22:25:21.410Z,3.90
2019-02-16T22:27:51.792Z,3.90
2019-02-16T22:30:22.158Z,3.80
2019-02-16T22:32:52.285Z,3.80
2019-02-16T22:35:22.490Z,3.70
2019-02-16T22:37:52.770Z,3.70
2019-02-16T22:40:23.016Z,3.70
2019-02-16T22:42:53.301Z,3.60
2019-02-16T22:45:23.474Z,3.50
2019-02-16T22:47:53.773Z,3.40
2019-02-16T22:50:23.991Z,3.40
2019-02-16T22:52:54.273Z,3.40
2019-02-16T22:55:24.486Z,3.40
2019-02-16T22:57:54.769Z,3.40
2019-02-16T23:00:44.171Z,3.40
2019-02-16T23:03:14.640Z,3.30
2019-02-16T23:05:44.943Z,3.30
2019-02-16T23:08:15.263Z,3.30
2019-02-16T23:10:45.479Z,3.30
2019-02-16T23:13:15.759Z,3.30
2019-02-16T23:15:46.051Z,3.30
2019-02-16T23:18:16.260Z,3.40
2019-02-16T23:20:47.815Z,3.30
2019-02-16T23:23:18.150Z,3.30
2019-02-16T23:25:48.433Z,3.20
2019-02-16T23:28:18.759Z,3.10
2019-02-16T23:30:48.981Z,3.10
2019-02-16T23:33:19.244Z,3.10
2019-02-16T23:35:49.563Z,3.00
2019-02-16T23:38:19.921Z,3.00
2019-02-16T23:40:50.126Z,2.90
2019-02-16T23:43:20.336Z,2.80
2019-02-16T23:45:50.477Z,2.90
2019-02-16T23:48:20.666Z,2.90
2019-02-16T23:50:51.336Z,2.90
2019-02-16T23:53:21.669Z,2.90
2019-02-16T23:55:51.871Z,2.90
2019-02-16T23:58:22.047Z,2.90
